This is the latest recevied weather packets stored in our database for station/object N8QQQ. If no packets are shown the sender has not sent any weather packets the latest 1 day(s).
| Time | Temp. | Humidity | Pressure | Rain* | Wind** | Luminosity | Snow |
|---|---|---|---|---|---|---|---|
| 1778083514 | 2.78° C | 61% | 1012 hPa | 0 mm | - | 86 W/m² | - |
| 1778083211 | 2.78° C | 60% | 1011.9 hPa | 0 mm | - | 76 W/m² | - |
| 1778080591 | 2.78° C | 60% | 1011.8 hPa | 0 mm | - | 133 W/m² | - |
| 1778080287 | 2.22° C | 62% | 1011.7 hPa | 0 mm | - | 150 W/m² | - |
| 1778079984 | 2.22° C | 61% | 1011.8 hPa | 0 mm | - | 113 W/m² | - |
| 1778079075 | 2.22° C | 62% | 1011.6 hPa | 0 mm | - | 135 W/m² | - |
| 1778078772 | 2.22° C | 62% | 1011.6 hPa | 0 mm | - | 112 W/m² | - |
| 1778076656 | 2.22° C | 64% | 1011.5 hPa | 0 mm | - | 118 W/m² | - |
| 1778076353 | 1.67° C | 64% | 1011.6 hPa | 0 mm | - | 122 W/m² | - |
| 1778075747 | 1.67° C | 66% | 1011.6 hPa | 0 mm | - | 113 W/m² | - |
| 1778075443 | 1.67° C | 65% | 1011.7 hPa | 0 mm | - | 132 W/m² | - |
| 1778074533 | 1.11° C | 67% | 1011.6 hPa | 0 mm | - | 52 W/m² | - |
| 1778074230 | 1.11° C | 66% | 1011.6 hPa | 0 mm | - | 59 W/m² | - |
| 1778073927 | 1.11° C | 66% | 1011.8 hPa | 0 mm | - | 62 W/m² | - |
| 1778071808 | 0.56° C | 69% | 1011.3 hPa | 0 mm | - | 46 W/m² | - |
| 1778070901 | 0.56° C | 70% | 1011.2 hPa | 0 mm | - | 37 W/m² | - |
| 1778070295 | 0.56° C | 71% | 1011 hPa | 0 mm | - | 32 W/m² | - |
| 1778067271 | 0° C | 75% | 1010.6 hPa | 0 mm | - | 13 W/m² | - |
| 1778066967 | 0° C | 74% | 1010.8 hPa | 0 mm | - | 12 W/m² | - |
| 1778066665 | 0° C | 75% | 1010.6 hPa | 0 mm | - | 11 W/m² | - |
| 1778066060 | 0° C | 75% | 1010.6 hPa | 0 mm | - | 8 W/m² | - |
| 1778064847 | -0.56° C | 76% | 1010.5 hPa | 0 mm | - | 3 W/m² | - |
| 1778063940 | -0.56° C | 77% | 1010.5 hPa | 0 mm | - | 1 W/m² | - |
| 1778063637 | -0.56° C | 77% | 1010.7 hPa | 0 mm | - | 1 W/m² | - |
| 1778063334 | -0.56° C | 76% | 1010.2 hPa | 0 mm | - | 1 W/m² | - |
* Rain latest hour (hover to see other rain measurements)
** Current wind speed in m/s (hover to see current wind gust speed)